Главная страница
METAR-TAF:

METAR-TAF

Аэропорты :

Butler, Пенсильвания, США

широта: 40-47N, долгота: 079-57W, высота над уровнем моря: 380 м

Текущие метеонаблюдения

Эта сводка был подготовлена 33 минут назад, в 13:56 UTC
Ветер 4 Узел от юго-юго-восточный
Температура 24°C
Влажность 83%
Давление 1020 hPa
Видимость: 16.1 км
ясное небо

METAR: KBTP 161356Z AUTO 16004KT 10SM CLR 24/21 A3013 RMK AO2 SLP199 T02390206

Время: 10:29 (14:29 UTC)


TAF: отсутствует

Метеонаблюдения и прогнозы для более 4000 аэропортов (сводки METAR и TAF).

Имеющиеся станции представлены на карте желтыми и красными точками.

Чтобы увидеть название станции, наведите на нее мышь.

Затем щелкните, чтобы увидеть метеонаблюдения и метеопрогнозы.

Управление картой: чтобы увеличить масштаб, щелкните зеленые кнопки с черным крестиком; чтобы уменьшить масштаб, щелкните зеленую кнопку с тире; для просмотра соседних карт щелкайте зеленые стрелки.


METAR-TAF: